Time;durP1;ratioP1;P1;durP2;ratioP2;P2;SDS_P1;SDS_P2;PMS_P1;PMS_P2;Temp;Humidity;BMP_temperature;BMP_pressure;BME280_temperature;BME280_humidity;BME280_pressure;Samples;Min_cycle;Max_cycle;Signal;HPM_P1;HPM_P2
2023/12/31 00:02:18;;;;;;;;;;;9.40;99.90;;;;;;2616913;54;19947;-67
2023/12/31 00:04:48;;;;;;;;;;;9.40;99.90;;;;;;2616474;54;20455;-68
2023/12/31 00:07:18;;;;;;;;;;;9.40;99.90;;;;;;2616180;54;20002;-68
2023/12/31 00:09:47;;;;;;;;;;;9.40;99.90;;;;;;2616167;47;19998;-69
2023/12/31 00:12:17;;;;;;;;;;;9.40;99.90;;;;;;2616632;54;19946;-68
2023/12/31 00:14:47;;;;;;;;;;;9.30;99.90;;;;;;2616236;54;19950;-69
2023/12/31 00:17:19;;;;;;;;;;;9.30;99.90;;;;;;2617173;47;20004;-69
2023/12/31 00:19:49;;;;;;;;;;;9.30;99.90;;;;;;2617172;54;19947;-69
2023/12/31 00:22:19;;;;;;;;;;;9.30;99.90;;;;;;2617471;54;19953;-72
2023/12/31 00:24:51;;;;;;;;;;;9.30;99.90;;;;;;2620028;47;19946;-69
2023/12/31 00:27:20;;;;;;;;;;;9.20;99.90;;;;;;2619991;54;19951;-69
2023/12/31 00:29:50;;;;;;;;;;;9.20;99.90;;;;;;2617325;54;19945;-69
2023/12/31 00:32:22;;;;;;;;;;;9.10;99.90;;;;;;2617310;49;19947;-70
2023/12/31 00:34:52;;;;;;;;;;;8.70;99.90;;;;;;2616909;54;19981;-70
2023/12/31 00:37:22;;;;;;;;;;;9.10;99.90;;;;;;2617089;54;19946;-69
2023/12/31 00:39:51;;;;;;;;;;;9.00;99.90;;;;;;2617542;39;20318;-69
2023/12/31 00:42:21;;;;;;;;;;;9.00;99.90;;;;;;2616890;47;19971;-69
2023/12/31 00:44:52;;;;;;;;;;;9.00;99.90;;;;;;2617616;54;19947;-69
2023/12/31 00:47:24;;;;;;;;;;;8.90;99.90;;;;;;2617262;54;19939;-70
2023/12/31 00:49:54;;;;;;;;;;;8.90;99.90;;;;;;2616906;47;19939;-69
2023/12/31 00:52:23;;;;;;;;;;;8.90;99.90;;;;;;2616571;54;19939;-70
2023/12/31 00:54:53;;;;;;;;;;;8.80;99.90;;;;;;2616337;47;19947;-68
2023/12/31 00:57:23;;;;;;;;;;;8.80;99.90;;;;;;2616164;47;19945;-69
2023/12/31 00:59:52;;;;;;;;;;;9.00;99.90;;;;;;2618582;54;19945;-68
2023/12/31 01:02:24;;;;;;;;;;;8.70;99.90;;;;;;2624952;39;20384;-69
2023/12/31 01:04:54;;;;;;;;;;;8.70;99.90;;;;;;2622676;31;20438;-68
2023/12/31 01:07:24;;;;;;;;;;;8.70;99.90;;;;;;2621862;54;19996;-68
2023/12/31 01:09:54;;;;;;;;;;;8.60;99.90;;;;;;2622040;54;19939;-69
2023/12/31 01:12:23;;;;;;;;;;;8.60;99.90;;;;;;2621924;54;19939;-71
2023/12/31 01:14:53;;;;;;;;;;;8.60;99.90;;;;;;2622654;54;19953;-69
2023/12/31 01:17:25;;;;;;;;;;;8.60;99.90;;;;;;2622524;54;20472;-70
2023/12/31 01:19:55;;;;;;;;;;;8.50;99.90;;;;;;2622619;54;19985;-69
2023/12/31 01:22:24;;;;;;;;;;;8.40;99.90;;;;;;2622288;54;19942;-70
2023/12/31 01:24:55;;;;;;;;;;;8.30;99.90;;;;;;2622160;54;19945;-70
2023/12/31 01:27:25;;;;;;;;;;;8.20;99.90;;;;;;2621695;54;19953;-70
2023/12/31 01:29:54;;;;;;;;;;;9.00;99.90;;;;;;2619691;54;19938;-71
2023/12/31 01:32:27;;;;;;;;;;;8.00;99.90;;;;;;2619041;54;20453;-71
2023/12/31 01:34:58;;;;;;;;;;;7.80;99.90;;;;;;2619158;47;19947;-69
2023/12/31 01:37:28;;;;;;;;;;;7.60;99.90;;;;;;2619655;54;19947;-70
2023/12/31 01:39:59;;;;;;;;;;;7.60;99.90;;;;;;2622284;54;19946;-71
2023/12/31 01:42:28;;;;;;;;;;;7.60;99.90;;;;;;2623298;54;19954;-70
2023/12/31 01:44:58;;;;;;;;;;;7.50;99.90;;;;;;2623654;54;19945;-70
2023/12/31 01:47:30;;;;;;;;;;;7.50;99.90;;;;;;2624152;47;19942;-71
2023/12/31 01:50:00;;;;;;;;;;;7.60;99.90;;;;;;2622708;54;19938;-71
2023/12/31 01:52:30;;;;;;;;;;;7.50;99.90;;;;;;2619791;39;20341;-70
2023/12/31 01:55:00;;;;;;;;;;;7.60;99.90;;;;;;2618413;51;19946;-69
2023/12/31 01:57:33;;;;;;;;;;;7.60;99.90;;;;;;2618847;54;19947;-71
2023/12/31 02:00:03;;;;;;;;;;;7.60;99.90;;;;;;2617275;54;19954;-69
2023/12/31 02:02:36;;;;;;;;;;;7.60;99.90;;;;;;2617808;54;19949;-69
2023/12/31 02:05:11;;;;;;;;;;;7.60;99.90;;;;;;2617286;54;20030;-70
2023/12/31 02:07:41;;;;;;;;;;;7.70;99.90;;;;;;2618242;47;19945;-69
2023/12/31 02:10:11;;;;;;;;;;;7.70;99.90;;;;;;2616086;54;20037;-72
2023/12/31 02:12:41;;;;;;;;;;;7.70;99.90;;;;;;2618485;54;19973;-70
2023/12/31 02:15:11;;;;;;;;;;;7.70;99.90;;;;;;2619437;46;19947;-70
2023/12/31 02:17:43;;;;;;;;;;;7.70;99.90;;;;;;2621975;54;19939;-69
2023/12/31 02:20:13;;;;;;;;;;;7.60;99.90;;;;;;2622911;47;19945;-69
2023/12/31 02:22:43;;;;;;;;;;;7.60;99.90;;;;;;2623905;54;19981;-70
2023/12/31 02:25:14;;;;;;;;;;;7.50;99.90;;;;;;2622543;54;19939;-70
2023/12/31 02:27:46;;;;;;;;;;;7.50;99.90;;;;;;2622138;31;20490;-70
2023/12/31 02:30:16;;;;;;;;;;;7.50;99.90;;;;;;2623261;54;19964;-70
2023/12/31 02:32:45;;;;;;;;;;;7.40;99.90;;;;;;2623814;54;20441;-70
2023/12/31 02:35:15;;;;;;;;;;;7.40;99.90;;;;;;2624129;39;20341;-70
2023/12/31 02:37:45;;;;;;;;;;;7.30;99.90;;;;;;2623551;31;20370;-70
2023/12/31 02:40:15;;;;;;;;;;;7.20;99.90;;;;;;2622460;54;19953;-70
2023/12/31 02:42:47;;;;;;;;;;;7.20;99.90;;;;;;2623160;54;20556;-71
2023/12/31 02:45:17;;;;;;;;;;;7.10;99.90;;;;;;2623007;54;19954;-70
2023/12/31 02:47:47;;;;;;;;;;;7.20;99.90;;;;;;2621168;54;20038;-69
2023/12/31 02:50:17;;;;;;;;;;;7.20;99.90;;;;;;2620354;47;19950;-70
2023/12/31 02:52:48;;;;;;;;;;;7.30;99.90;;;;;;2616008;39;20308;-69
2023/12/31 02:55:18;;;;;;;;;;;7.30;99.90;;;;;;2616802;39;20356;-69
2023/12/31 02:57:50;;;;;;;;;;;7.30;99.90;;;;;;2616730;47;19954;-70
2023/12/31 03:00:20;;;;;;;;;;;7.30;99.90;;;;;;2615681;54;19947;-70
2023/12/31 03:02:49;;;;;;;;;;;7.40;99.90;;;;;;2617534;31;20432;-70
2023/12/31 03:05:19;;;;;;;;;;;7.40;99.90;;;;;;2616456;54;20029;-69
2023/12/31 03:07:49;;;;;;;;;;;7.40;99.90;;;;;;2616507;54;19947;-69
2023/12/31 03:10:18;;;;;;;;;;;7.40;99.90;;;;;;2616603;54;19993;-70
2023/12/31 03:12:51;;;;;;;;;;;7.40;99.90;;;;;;2616709;54;19939;-69
2023/12/31 03:15:20;;;;;;;;;;;7.40;99.90;;;;;;2616859;47;19942;-70
2023/12/31 03:17:51;;;;;;;;;;;7.30;99.90;;;;;;2616625;54;19947;-70
2023/12/31 03:20:21;;;;;;;;;;;7.30;99.90;;;;;;2617323;54;19980;-70
2023/12/31 03:22:50;;;;;;;;;;;7.30;99.90;;;;;;2616499;54;19945;-70
2023/12/31 03:25:20;;;;;;;;;;;7.30;99.90;;;;;;2617568;39;20395;-70
2023/12/31 03:27:52;;;;;;;;;;;7.30;99.90;;;;;;2617538;39;20236;-70
2023/12/31 03:30:22;;;;;;;;;;;7.30;99.90;;;;;;2617074;54;19946;-69
2023/12/31 03:32:51;;;;;;;;;;;7.20;99.90;;;;;;2615590;47;19953;-70
2023/12/31 03:35:30;;;;;;;;;;;7.30;99.90;;;;;;2616767;54;19946;-70
2023/12/31 03:38:00;;;;;;;;;;;7.30;99.90;;;;;;2617270;39;20340;-70
2023/12/31 03:40:33;;;;;;;;;;;7.20;99.90;;;;;;2616890;54;20441;-70
2023/12/31 03:43:06;;;;;;;;;;;7.30;99.90;;;;;;2617246;47;19954;-70
2023/12/31 03:45:36;;;;;;;;;;;7.30;99.90;;;;;;2616569;47;19946;-70
2023/12/31 03:48:06;;;;;;;;;;;7.30;99.90;;;;;;2616583;54;19946;-70
2023/12/31 03:50:35;;;;;;;;;;;7.30;99.90;;;;;;2621195;54;20502;-71
2023/12/31 03:53:05;;;;;;;;;;;7.30;99.90;;;;;;2618603;54;19938;-70
2023/12/31 03:55:35;;;;;;;;;;;7.30;99.90;;;;;;2615733;54;19945;-70
2023/12/31 03:58:08;;;;;;;;;;;7.30;99.90;;;;;;2618384;54;19951;-70
2023/12/31 04:00:38;;;;;;;;;;;7.30;99.90;;;;;;2617429;39;20370;-70
2023/12/31 04:03:08;;;;;;;;;;;7.20;99.90;;;;;;2619247;39;20352;-70
2023/12/31 04:05:37;;;;;;;;;;;7.20;99.90;;;;;;2618958;54;19938;-70
2023/12/31 04:08:07;;;;;;;;;;;7.20;99.90;;;;;;2618150;54;20128;-70
2023/12/31 04:10:37;;;;;;;;;;;7.20;99.90;;;;;;2616223;54;19954;-70
2023/12/31 04:13:09;;;;;;;;;;;7.20;99.90;;;;;;2615852;54;19946;-70
2023/12/31 04:15:39;;;;;;;;;;;7.20;99.90;;;;;;2617398;39;20372;-70
2023/12/31 04:18:09;;;;;;;;;;;6.90;99.90;;;;;;2617419;54;19954;-70
2023/12/31 04:20:38;;;;;;;;;;;7.30;99.90;;;;;;2616792;47;19945;-70
2023/12/31 04:23:08;;;;;;;;;;;7.30;99.90;;;;;;2616975;39;20349;-70
2023/12/31 04:25:37;;;;;;;;;;;7.40;99.90;;;;;;2616383;39;20242;-70
2023/12/31 04:28:10;;;;;;;;;;;7.40;99.90;;;;;;2616456;47;19938;-70
2023/12/31 04:30:40;;;;;;;;;;;7.40;99.90;;;;;;2616315;47;19943;-70
2023/12/31 04:33:10;;;;;;;;;;;7.40;99.90;;;;;;2621563;54;20467;-70
2023/12/31 04:35:40;;;;;;;;;;;7.50;99.90;;;;;;2623275;54;19945;-70
2023/12/31 04:38:19;;;;;;;;;;;7.60;99.90;;;;;;2621447;47;19946;-70
2023/12/31 04:40:49;;;;;;;;;;;7.60;99.90;;;;;;2617635;54;20449;-70
2023/12/31 04:43:21;;;;;;;;;;;7.50;99.90;;;;;;2618081;47;19953;-70
2023/12/31 04:45:50;;;;;;;;;;;7.50;99.90;;;;;;2617274;47;20484;-70
2023/12/31 04:48:20;;;;;;;;;;;7.40;99.90;;;;;;2617837;54;19953;-70
2023/12/31 04:50:50;;;;;;;;;;;7.40;99.90;;;;;;2617194;54;19951;-69
2023/12/31 04:53:21;;;;;;;;;;;7.40;99.90;;;;;;2617991;54;20042;-70
2023/12/31 04:55:51;;;;;;;;;;;7.40;99.90;;;;;;2616466;39;20512;-70
2023/12/31 04:58:23;;;;;;;;;;;7.50;99.90;;;;;;2617208;54;19946;-70
2023/12/31 05:00:53;;;;;;;;;;;7.50;99.90;;;;;;2617069;54;19939;-70
2023/12/31 05:03:23;;;;;;;;;;;7.60;99.90;;;;;;2615519;54;21045;-70
2023/12/31 05:05:52;;;;;;;;;;;7.60;99.90;;;;;;2616591;47;19977;-70
2023/12/31 05:08:22;;;;;;;;;;;7.60;99.90;;;;;;2617297;54;19946;-70
2023/12/31 05:10:52;;;;;;;;;;;7.70;99.90;;;;;;2616670;47;20429;-70
2023/12/31 05:13:24;;;;;;;;;;;7.80;99.90;;;;;;2616916;54;20467;-70
2023/12/31 05:15:53;;;;;;;;;;;7.70;99.90;;;;;;2616853;47;20480;-70
2023/12/31 05:18:23;;;;;;;;;;;7.70;99.90;;;;;;2617828;54;19939;-70
2023/12/31 05:20:53;;;;;;;;;;;7.70;99.90;;;;;;2618568;39;20324;-70
2023/12/31 05:23:22;;;;;;;;;;;7.70;99.90;;;;;;2617448;54;19950;-70
2023/12/31 05:25:52;;;;;;;;;;;7.70;99.90;;;;;;2616053;47;19946;-70
2023/12/31 05:28:24;;;;;;;;;;;7.80;99.90;;;;;;2617763;54;19939;-69
2023/12/31 05:30:54;;;;;;;;;;;7.80;99.90;;;;;;2621564;47;19961;-70
2023/12/31 05:33:23;;;;;;;;;;;7.90;99.90;;;;;;2622213;54;19939;-69
2023/12/31 05:35:53;;;;;;;;;;;7.90;99.90;;;;;;2616812;54;19957;-69
2023/12/31 05:38:23;;;;;;;;;;;7.90;99.90;;;;;;2617552;54;20483;-70
2023/12/31 05:40:52;;;;;;;;;;;7.90;99.90;;;;;;2616350;47;19946;-70
2023/12/31 05:43:25;;;;;;;;;;;8.00;99.90;;;;;;2618021;54;19938;-70
2023/12/31 05:45:54;;;;;;;;;;;8.00;99.90;;;;;;2617792;47;19938;-70
2023/12/31 05:48:24;;;;;;;;;;;7.90;99.90;;;;;;2617459;50;19953;-70
2023/12/31 05:50:54;;;;;;;;;;;7.90;99.90;;;;;;2617093;47;19947;-70
2023/12/31 05:53:23;;;;;;;;;;;7.90;99.90;;;;;;2617171;47;19946;-70
2023/12/31 05:55:57;;;;;;;;;;;7.90;99.90;;;;;;2616495;54;19997;-69
2023/12/31 05:58:29;;;;;;;;;;;7.90;99.90;;;;;;2616706;54;19947;-70
2023/12/31 06:01:00;;;;;;;;;;;8.00;99.90;;;;;;2616799;54;19947;-70
2023/12/31 06:03:29;;;;;;;;;;;8.00;99.90;;;;;;2617337;54;20019;-70
2023/12/31 06:05:59;;;;;;;;;;;8.00;99.90;;;;;;2616315;54;19954;-71
2023/12/31 06:08:29;;;;;;;;;;;8.00;99.90;;;;;;2619699;54;19953;-70
2023/12/31 06:10:59;;;;;;;;;;;8.00;99.90;;;;;;2620286;39;20440;-75
2023/12/31 06:13:31;;;;;;;;;;;9.50;99.90;;;;;;2619577;54;20092;-76
2023/12/31 06:16:01;;;;;;;;;;;8.10;99.90;;;;;;2619388;47;20412;-77
2023/12/31 06:18:31;;;;;;;;;;;8.20;99.90;;;;;;2622425;47;19939;-76
2023/12/31 06:21:01;;;;;;;;;;;8.10;99.90;;;;;;2617046;39;20325;-76
2023/12/31 06:23:30;;;;;;;;;;;8.20;99.90;;;;;;2617706;50;19958;-77
2023/12/31 06:26:00;;;;;;;;;;;8.20;99.90;;;;;;2619497;54;20014;-77
2023/12/31 06:28:33;;;;;;;;;;;8.20;99.90;;;;;;2620443;46;19954;-75
2023/12/31 06:31:03;;;;;;;;;;;8.30;99.90;;;;;;2618275;39;20338;-76
2023/12/31 06:33:33;;;;;;;;;;;8.30;99.90;;;;;;2618064;54;19977;-76
2023/12/31 06:36:03;;;;;;;;;;;8.30;99.90;;;;;;2617713;47;19946;-76
2023/12/31 06:38:33;;;;;;;;;;;8.30;99.90;;;;;;2617286;47;19950;-76
2023/12/31 06:41:07;;;;;;;;;;;8.30;99.90;;;;;;2619222;46;20058;-76
2023/12/31 06:43:40;;;;;;;;;;;8.30;99.90;;;;;;2618394;54;19958;-77
2023/12/31 06:46:10;;;;;;;;;;;8.30;99.90;;;;;;2621489;39;20341;-78
2023/12/31 06:48:40;;;;;;;;;;;8.30;99.90;;;;;;2622636;54;19950;-77
2023/12/31 06:51:10;;;;;;;;;;;8.30;99.90;;;;;;2624818;54;19951;-77
2023/12/31 06:53:40;;;;;;;;;;;8.40;99.90;;;;;;2621177;47;19950;-77
2023/12/31 06:56:10;;;;;;;;;;;8.40;99.90;;;;;;2618143;47;20030;-75
2023/12/31 06:58:42;;;;;;;;;;;8.40;99.90;;;;;;2617374;47;19973;-76
2023/12/31 07:01:29;;;;;;;;;;;8.40;99.90;;;;;;2620142;46;19962;-76
2023/12/31 07:04:38;;;;;;;;;;;8.40;99.90;;;;;;2621485;46;19938;-75
2023/12/31 07:07:24;;;;;;;;;;;8.40;99.90;;;;;;2617103;54;19958;-75
2023/12/31 07:09:54;;;;;;;;;;;8.40;99.90;;;;;;2618121;46;20000;-76
2023/12/31 07:12:24;;;;;;;;;;;8.40;99.90;;;;;;2618208;47;19946;-76
2023/12/31 07:14:56;;;;;;;;;;;8.50;99.90;;;;;;2618182;50;19955;-77
2023/12/31 07:17:26;;;;;;;;;;;8.50;99.90;;;;;;2619311;47;20038;-77
2023/12/31 07:19:59;;;;;;;;;;;8.50;99.90;;;;;;2621412;47;19955;-77
2023/12/31 07:22:29;;;;;;;;;;;8.50;99.90;;;;;;2621985;54;19988;-78
2023/12/31 07:25:00;;;;;;;;;;;8.40;99.90;;;;;;2626271;47;19950;-76
2023/12/31 07:27:30;;;;;;;;;;;8.50;99.90;;;;;;2625368;54;20824;-76
2023/12/31 07:30:02;;;;;;;;;;;8.50;99.90;;;;;;2618484;54;19974;-77
2023/12/31 07:32:32;;;;;;;;;;;8.40;99.90;;;;;;2617776;47;20536;-76
2023/12/31 07:35:02;;;;;;;;;;;8.40;99.90;;;;;;2616991;47;20061;-77
2023/12/31 07:37:32;;;;;;;;;;;8.40;99.90;;;;;;2617832;54;20519;-76
2023/12/31 07:40:04;;;;;;;;;;;8.40;99.90;;;;;;2617341;51;19939;-76
2023/12/31 07:42:34;;;;;;;;;;;8.40;99.90;;;;;;2617494;47;19947;-76
2023/12/31 07:45:07;;;;;;;;;;;8.40;99.90;;;;;;2617185;47;20030;-76
2023/12/31 07:47:39;;;;;;;;;;;8.30;99.90;;;;;;2618609;47;19938;-76
2023/12/31 07:50:09;;;;;;;;;;;8.30;99.90;;;;;;2618456;54;20464;-76
2023/12/31 07:52:39;;;;;;;;;;;8.30;99.90;;;;;;2617470;47;19951;-76
2023/12/31 07:55:10;;;;;;;;;;;8.30;99.90;;;;;;2617853;39;20363;-76
2023/12/31 07:57:40;;;;;;;;;;;8.30;99.90;;;;;;2617819;54;20440;-76
2023/12/31 08:00:13;;;;;;;;;;;8.30;99.90;;;;;;2621414;54;19972;-78
2023/12/31 08:02:43;;;;;;;;;;;8.30;99.90;;;;;;2640230;39;20577;-82
2023/12/31 08:05:13;;;;;;;;;;;8.30;99.90;;;;;;2630778;47;20230;-82
2023/12/31 08:07:44;;;;;;;;;;;9.10;99.90;;;;;;2630690;47;19926;-80
2023/12/31 08:10:14;;;;;;;;;;;8.40;99.90;;;;;;2630057;54;19969;-84
2023/12/31 08:12:44;;;;;;;;;;;8.50;99.90;;;;;;2630079;47;19948;-81
2023/12/31 08:15:17;;;;;;;;;;;8.20;99.90;;;;;;2630169;54;19951;-82
2023/12/31 08:17:47;;;;;;;;;;;8.90;99.90;;;;;;2629801;47;19942;-84
2023/12/31 08:20:17;;;;;;;;;;;8.30;99.90;;;;;;2589395;39;21435;-71
2023/12/31 08:22:52;;;;;;;;;;;8.30;99.90;;;;;;2615122;54;19942;-71
2023/12/31 08:25:22;;;;;;;;;;;8.30;99.90;;;;;;2615851;47;19939;-71
2023/12/31 08:27:51;;;;;;;;;;;8.10;99.90;;;;;;2616421;47;19946;-71
2023/12/31 08:30:24;;;;;;;;;;;8.00;99.90;;;;;;2615324;54;19953;-72
2023/12/31 08:32:54;;;;;;;;;;;8.10;99.90;;;;;;2616594;54;19943;-71
2023/12/31 08:35:26;;;;;;;;;;;8.10;99.90;;;;;;2616475;31;20398;-71
2023/12/31 08:37:56;;;;;;;;;;;8.00;99.90;;;;;;2615537;54;19993;-71
2023/12/31 08:40:25;;;;;;;;;;;8.10;99.90;;;;;;2616069;54;19959;-72
2023/12/31 08:42:55;;;;;;;;;;;8.10;99.90;;;;;;2617081;54;20042;-72
2023/12/31 08:45:27;;;;;;;;;;;8.20;99.90;;;;;;2616660;47;19953;-73
2023/12/31 08:47:57;;;;;;;;;;;8.20;99.90;;;;;;2616571;54;20059;-73
2023/12/31 08:50:27;;;;;;;;;;;8.20;99.90;;;;;;2616151;50;19947;-72
2023/12/31 08:52:57;;;;;;;;;;;8.40;99.90;;;;;;2616233;54;19947;-73
2023/12/31 08:55:26;;;;;;;;;;;8.30;99.90;;;;;;2615564;54;19973;-72
2023/12/31 08:57:56;;;;;;;;;;;8.30;99.90;;;;;;2617839;54;19977;-71
2023/12/31 09:00:28;;;;;;;;;;;8.30;99.90;;;;;;2614334;47;19938;-72
2023/12/31 09:02:58;;;;;;;;;;;8.40;99.90;;;;;;2615663;54;20513;-73
2023/12/31 09:05:28;;;;;;;;;;;8.50;99.90;;;;;;2615996;47;19947;-73
2023/12/31 09:07:57;;;;;;;;;;;8.50;99.90;;;;;;2616299;54;20037;-73
2023/12/31 09:10:27;;;;;;;;;;;8.50;99.90;;;;;;2616304;54;20681;-73
2023/12/31 09:12:57;;;;;;;;;;;8.60;99.90;;;;;;2616741;47;19966;-73
2023/12/31 09:15:30;;;;;;;;;;;8.60;99.90;;;;;;2615436;47;19939;-71
2023/12/31 09:17:59;;;;;;;;;;;8.60;99.90;;;;;;2616561;47;19947;-73
2023/12/31 09:20:29;;;;;;;;;;;8.60;99.90;;;;;;2616103;54;20037;-72
2023/12/31 09:22:59;;;;;;;;;;;8.60;99.90;;;;;;2616050;54;19950;-72
2023/12/31 09:25:29;;;;;;;;;;;8.60;99.90;;;;;;2617019;54;19947;-73
2023/12/31 09:27:58;;;;;;;;;;;8.60;99.90;;;;;;2615583;54;20697;-72
2023/12/31 09:30:31;;;;;;;;;;;8.60;99.90;;;;;;2617380;47;19980;-74
2023/12/31 09:33:05;;;;;;;;;;;8.60;99.90;;;;;;2617527;39;20330;-75
2023/12/31 09:35:35;;;;;;;;;;;8.60;99.90;;;;;;2616749;47;19947;-72
2023/12/31 09:38:05;;;;;;;;;;;8.50;99.90;;;;;;2618015;54;19939;-72
2023/12/31 09:40:35;;;;;;;;;;;8.60;99.90;;;;;;2616023;54;19939;-73
2023/12/31 09:43:05;;;;;;;;;;;8.60;99.90;;;;;;2616549;54;20038;-73
2023/12/31 09:45:38;;;;;;;;;;;8.60;99.90;;;;;;2616880;54;19969;-74
2023/12/31 09:48:09;;;;;;;;;;;8.70;99.90;;;;;;2617312;54;19945;-74
2023/12/31 09:50:39;;;;;;;;;;;8.70;99.90;;;;;;2617386;48;19951;-74
2023/12/31 09:53:10;;;;;;;;;;;8.60;99.90;;;;;;2616135;54;19973;-74
2023/12/31 09:55:40;;;;;;;;;;;8.60;99.90;;;;;;2616652;54;19965;-74
2023/12/31 09:58:10;;;;;;;;;;;8.50;99.90;;;;;;2615284;54;19994;-74
2023/12/31 10:00:42;;;;;;;;;;;8.60;99.90;;;;;;2616685;54;19946;-74
2023/12/31 10:03:13;;;;;;;;;;;8.60;99.90;;;;;;2616909;47;20505;-75
2023/12/31 10:05:44;;;;;;;;;;;8.60;99.90;;;;;;2623307;39;20368;-76
2023/12/31 10:08:13;;;;;;;;;;;8.60;99.90;;;;;;2620885;54;19958;-74
2023/12/31 10:10:43;;;;;;;;;;;8.50;99.90;;;;;;2620993;47;19943;-75
2023/12/31 10:13:16;;;;;;;;;;;8.40;99.90;;;;;;2622604;47;19998;-75
2023/12/31 10:15:48;;;;;;;;;;;8.40;99.90;;;;;;2623864;54;20005;-74
2023/12/31 10:18:19;;;;;;;;;;;8.40;99.90;;;;;;2625146;54;19984;-73
2023/12/31 10:20:49;;;;;;;;;;;8.30;99.90;;;;;;2624127;54;19947;-73
2023/12/31 10:23:18;;;;;;;;;;;8.30;99.90;;;;;;2622704;54;19946;-73
2023/12/31 10:25:48;;;;;;;;;;;8.20;99.90;;;;;;2618877;54;19938;-73
2023/12/31 10:28:20;;;;;;;;;;;8.20;99.90;;;;;;2620055;54;19938;-74
2023/12/31 10:30:52;;;;;;;;;;;8.30;99.90;;;;;;2619469;54;20383;-72
2023/12/31 10:33:29;;;;;;;;;;;8.30;99.90;;;;;;2617777;47;19946;-73
2023/12/31 10:36:06;;;;;;;;;;;8.30;99.90;;;;;;2615711;47;19953;-73
2023/12/31 10:38:46;;;;;;;;;;;8.20;99.90;;;;;;2618615;54;19946;-72
2023/12/31 10:41:20;;;;;;;;;;;8.30;99.90;;;;;;2616874;54;19985;-72
2023/12/31 10:43:51;;;;;;;;;;;8.30;99.90;;;;;;2617381;47;19993;-71
2023/12/31 10:46:25;;;;;;;;;;;8.40;99.90;;;;;;2618308;54;19951;-72
2023/12/31 10:48:58;;;;;;;;;;;8.30;99.90;;;;;;2618454;54;19946;-72
2023/12/31 10:51:31;;;;;;;;;;;8.30;99.90;;;;;;2618092;47;19946;-72
2023/12/31 10:54:05;;;;;;;;;;;8.30;99.90;;;;;;2617979;39;20368;-73
2023/12/31 10:56:36;;;;;;;;;;;8.40;99.90;;;;;;2617918;54;20008;-72
2023/12/31 10:59:06;;;;;;;;;;;8.30;99.90;;;;;;2617636;47;19967;-73
2023/12/31 11:01:40;;;;;;;;;;;8.40;99.90;;;;;;2617681;47;19950;-72
2023/12/31 11:04:11;;;;;;;;;;;8.40;99.90;;;;;;2615724;54;19946;-73
2023/12/31 11:06:42;;;;;;;;;;;8.50;99.90;;;;;;2616003;54;20015;-71
2023/12/31 11:09:13;;;;;;;;;;;8.50;99.90;;;;;;2615645;47;20065;-73
2023/12/31 11:11:43;;;;;;;;;;;8.50;99.90;;;;;;2617558;54;19946;-71
2023/12/31 11:14:15;;;;;;;;;;;8.60;99.90;;;;;;2617241;47;20048;-72
2023/12/31 11:16:51;;;;;;;;;;;8.60;99.90;;;;;;2617658;31;20464;-72
2023/12/31 11:19:32;;;;;;;;;;;8.60;99.90;;;;;;2617704;47;19946;-73
2023/12/31 11:22:06;;;;;;;;;;;8.70;99.90;;;;;;2619375;47;20057;-71
2023/12/31 11:24:35;;;;;;;;;;;8.80;99.90;;;;;;2617866;47;20062;-72
2023/12/31 11:27:03;;;;;;;;;;;8.90;99.90;;;;;;2617425;54;19947;-71
2023/12/31 11:29:33;;;;;;;;;;;8.90;99.90;;;;;;2618047;47;19965;-72
2023/12/31 11:32:08;;;;;;;;;;;9.00;99.90;;;;;;2618188;50;19993;-73
2023/12/31 11:34:39;;;;;;;;;;;9.10;99.90;;;;;;2617810;54;20042;-73
2023/12/31 11:37:09;;;;;;;;;;;9.10;99.90;;;;;;2618425;47;19985;-71
2023/12/31 11:39:39;;;;;;;;;;;9.20;99.90;;;;;;2618291;54;19992;-71
2023/12/31 11:42:12;;;;;;;;;;;9.20;99.90;;;;;;2620467;31;20421;-71
2023/12/31 12:55:29;;;;;;;;;;;9.20;99.90;;;;;;2627731;47;20092;-79
2023/12/31 12:57:59;;;;;;;;;;;9.40;99.90;;;;;;2624657;54;19943;-79
2023/12/31 13:00:29;;;;;;;;;;;9.40;99.90;;;;;;2620553;46;20016;-80
2023/12/31 13:02:59;;;;;;;;;;;9.40;99.90;;;;;;2625966;54;19946;-78
2023/12/31 13:05:29;;;;;;;;;;;10.10;99.90;;;;;;2623057;54;19969;-79
2023/12/31 13:07:59;;;;;;;;;;;9.50;99.90;;;;;;2626551;54;20496;-77
2023/12/31 13:10:31;;;;;;;;;;;9.50;99.90;;;;;;2620865;47;19946;-77
2023/12/31 13:13:02;;;;;;;;;;;9.50;99.90;;;;;;2622619;54;19988;-81
2023/12/31 13:15:33;;;;;;;;;;;9.50;99.90;;;;;;2626247;47;19973;-79
2023/12/31 13:18:03;;;;;;;;;;;9.50;99.90;;;;;;2624686;54;19950;-79
2023/12/31 13:20:33;;;;;;;;;;;9.50;99.90;;;;;;2617361;54;19978;-78
2023/12/31 13:23:03;;;;;;;;;;;9.60;99.90;;;;;;2617902;54;20472;-76
2023/12/31 13:25:36;;;;;;;;;;;9.60;99.90;;;;;;2621410;47;19950;-82
2023/12/31 13:28:06;;;;;;;;;;;10.70;99.90;;;;;;2622360;54;19958;-77
2023/12/31 13:30:37;;;;;;;;;;;9.60;99.90;;;;;;2620901;47;19966;-79
2023/12/31 13:33:08;;;;;;;;;;;9.60;99.90;;;;;;2619536;47;19939;-85
2023/12/31 13:35:38;;;;;;;;;;;9.60;99.90;;;;;;2622923;46;19947;-75
2023/12/31 13:38:18;;;;;;;;;;;9.50;99.90;;;;;;2624217;46;20453;-75
2023/12/31 13:40:51;;;;;;;;;;;9.60;99.90;;;;;;2621848;54;19938;-74
2023/12/31 13:43:21;;;;;;;;;;;9.60;99.90;;;;;;2628196;47;19942;-85
2023/12/31 13:45:51;;;;;;;;;;;9.60;99.90;;;;;;2626307;47;19946;-73
2023/12/31 13:48:21;;;;;;;;;;;9.70;99.90;;;;;;2623186;39;20279;-74
2023/12/31 13:50:50;;;;;;;;;;;9.70;99.90;;;;;;2620364;54;19946;-73
2023/12/31 13:53:20;;;;;;;;;;;9.70;99.90;;;;;;2619930;54;20037;-74
2023/12/31 13:55:53;;;;;;;;;;;9.70;99.90;;;;;;2617486;47;19950;-73
2023/12/31 13:58:23;;;;;;;;;;;9.60;99.90;;;;;;2617469;54;19947;-73
2023/12/31 14:00:53;;;;;;;;;;;9.60;99.90;;;;;;2618407;54;19942;-75
2023/12/31 14:03:23;;;;;;;;;;;9.60;99.90;;;;;;2618756;54;19957;-75
2023/12/31 14:05:53;;;;;;;;;;;9.60;99.90;;;;;;2615731;54;19954;-72
2023/12/31 14:08:23;;;;;;;;;;;9.60;99.90;;;;;;2618155;47;19947;-74
2023/12/31 14:10:56;;;;;;;;;;;9.60;99.90;;;;;;2618623;47;19954;-72
2023/12/31 14:13:25;;;;;;;;;;;9.60;99.90;;;;;;2619295;54;19958;-71
2023/12/31 14:15:55;;;;;;;;;;;9.70;99.90;;;;;;2618718;47;19968;-71
2023/12/31 14:18:25;;;;;;;;;;;9.70;99.90;;;;;;2618038;47;19946;-71
2023/12/31 14:20:54;;;;;;;;;;;9.70;99.90;;;;;;2618022;54;19939;-71
2023/12/31 14:23:24;;;;;;;;;;;9.70;99.90;;;;;;2617252;47;19989;-73
2023/12/31 14:25:57;;;;;;;;;;;9.60;99.90;;;;;;2617283;54;19946;-72
2023/12/31 14:28:26;;;;;;;;;;;9.60;99.90;;;;;;2616421;47;19954;-73
2023/12/31 14:30:56;;;;;;;;;;;9.60;99.90;;;;;;2617508;47;19953;-74
2023/12/31 14:33:26;;;;;;;;;;;9.60;99.90;;;;;;2619124;54;20073;-72
2023/12/31 14:35:56;;;;;;;;;;;9.60;99.90;;;;;;2616915;54;19946;-72
2023/12/31 14:38:26;;;;;;;;;;;9.60;99.90;;;;;;2623422;54;19938;-74
2023/12/31 14:40:58;;;;;;;;;;;9.70;99.90;;;;;;2618794;54;19947;-75
2023/12/31 14:43:30;;;;;;;;;;;9.60;99.90;;;;;;2620858;47;19953;-74
2023/12/31 14:46:00;;;;;;;;;;;9.60;99.90;;;;;;2618655;54;19954;-74
2023/12/31 14:48:30;;;;;;;;;;;9.60;99.90;;;;;;2617873;54;19953;-74
2023/12/31 14:50:59;;;;;;;;;;;9.60;99.90;;;;;;2615910;54;19954;-71
2023/12/31 14:53:29;;;;;;;;;;;9.60;99.90;;;;;;2600364;54;20328;-70
2023/12/31 14:56:02;;;;;;;;;;;9.60;99.90;;;;;;2604990;47;19947;-71
2023/12/31 14:58:32;;;;;;;;;;;9.50;99.90;;;;;;2605452;54;19954;-71
2023/12/31 15:01:02;;;;;;;;;;;9.50;99.90;;;;;;2606439;54;19958;-72
2023/12/31 15:03:32;;;;;;;;;;;9.50;99.90;;;;;;2606207;54;19973;-71
2023/12/31 15:06:01;;;;;;;;;;;9.50;99.90;;;;;;2605886;47;19938;-72
2023/12/31 15:08:31;;;;;;;;;;;9.50;99.90;;;;;;2606408;54;19973;-72
2023/12/31 15:11:04;;;;;;;;;;;9.60;99.90;;;;;;2616295;54;19992;-71
2023/12/31 15:13:40;;;;;;;;;;;9.60;99.90;;;;;;2617603;47;19973;-71
2023/12/31 15:16:10;;;;;;;;;;;9.60;99.90;;;;;;2618458;39;20499;-70
2023/12/31 15:18:40;;;;;;;;;;;9.60;99.90;;;;;;2618412;47;19953;-70
2023/12/31 15:21:10;;;;;;;;;;;9.60;99.90;;;;;;2620575;39;20352;-69
2023/12/31 15:23:39;;;;;;;;;;;9.60;99.90;;;;;;2618498;39;20379;-71
2023/12/31 15:26:12;;;;;;;;;;;9.60;99.90;;;;;;2618496;54;19951;-70
2023/12/31 15:28:41;;;;;;;;;;;9.60;99.90;;;;;;2617695;51;19946;-72
2023/12/31 15:31:11;;;;;;;;;;;9.60;99.90;;;;;;2617464;47;20038;-71
2023/12/31 15:33:41;;;;;;;;;;;9.60;99.90;;;;;;2619642;54;20683;-72
2023/12/31 15:36:14;;;;;;;;;;;9.50;99.90;;;;;;2621144;47;19953;-76
2023/12/31 15:38:44;;;;;;;;;;;9.50;99.90;;;;;;2624002;54;20034;-70
2023/12/31 15:41:22;;;;;;;;;;;9.50;99.90;;;;;;2617227;54;19957;-71
2023/12/31 15:43:52;;;;;;;;;;;9.50;99.90;;;;;;2616546;54;19946;-70
2023/12/31 15:46:22;;;;;;;;;;;9.50;99.90;;;;;;2615727;47;20424;-69
2023/12/31 15:48:52;;;;;;;;;;;9.30;99.90;;;;;;2616634;47;19946;-71
2023/12/31 15:51:21;;;;;;;;;;;9.40;99.90;;;;;;2616668;54;19946;-69
2023/12/31 15:53:51;;;;;;;;;;;9.40;99.90;;;;;;2616171;54;19954;-69
2023/12/31 15:56:23;;;;;;;;;;;9.40;99.90;;;;;;2620409;54;19953;-72
2023/12/31 15:58:53;;;;;;;;;;;9.40;99.90;;;;;;2619331;54;19997;-73
2023/12/31 16:01:23;;;;;;;;;;;9.40;99.90;;;;;;2624674;47;19969;-75
2023/12/31 16:03:53;;;;;;;;;;;9.30;99.90;;;;;;2623599;51;19947;-73